Saturday, January 19, 2019, 12:14 AM EST
Back to Local

KORH, Worcester Regional Airport

Location: Worcester, MA, United States Lat: 42.267
Local Time: 12:14 AM EST ( 5:14 GMT) Lon: -71.867
Time Zone: US/Eastern Elev: 1010 ft

Show me the last for .
Show Coded

Time T Td Feel RH Dir Speed Gust Alt SLP Vis Weather Sky Remarks
2019-01-18 23:54 29 17 23 60 Variable 6 - 30.07 30.11 10 CLR 24-hr Min Temp (12am): 18.0°F
24-hr Max Temp (12am): 34.0°F
2019-01-18 22:54 30 19 17 63 290° 12 22 30.06 30.10 10 CLR None
2019-01-18 21:54 32 23 22 68 290° 15 - 30.04 30.08 10 BKN031 None
2019-01-18 21:46 32 23 22 68 290° 14 - 30.03 - 10 FEW023 BKN031 None
2019-01-18 20:54 32 25 24 74 290° 9 - 30.02 30.06 10 OVC024 None
2019-01-18 19:54 32 26 24 78 270° 10 - 30.01 30.05 10 BKN025 OVC050 None
2019-01-18 18:54 32 26 24 78 250° 10 - 30.00 30.05 10 BKN044 OVC060 6-hr Precip Total (7pm): 0.00"
6-hr Min Temp (7pm): 32.0°F
6-hr Max Temp (7pm): 34.0°F
2019-01-18 17:54 33 26 24 75 240° 12 - 29.98 30.02 10 SCT049 OVC055 1-hr Precip Total: Trace
2019-01-18 16:54 33 27 25 77 250° 9 - 29.99 30.03 10 OVC060 None
2019-01-18 16:38 33 27 24 77 240° 12 - 29.98 - 10 SCT018 OVC065 None
2019-01-18 15:54 33 27 26 77 230° 8 - 29.97 30.01 10 BKN019 OVC044 None
2019-01-18 14:54 33 26 27 75 230° 7 - 29.97 30.01 10 OVC019 None
2019-01-18 13:54 33 26 27 75 210° 7 - 29.98 30.02 10 OVC022 None
2019-01-18 13:27 32 26 24 78 200° 9 - 29.98 - 10 SCT014 BKN022 BKN050 None
2019-01-18 12:54 32 26 24 78 190° 10 - 29.99 30.03 10 OVC014 6-hr Min Temp (1pm): 19.0°F
6-hr Max Temp (1pm): 32.0°F
2019-01-18 12:12 31 24 24 75 150° 7 - 30.01 - 10 OVC013 None
2019-01-18 11:54 30 24 25 78 160° 5 - 30.03 30.08 10 OVC017 None
2019-01-18 11:14 29 22 23 74 160° 6 - 30.06 - 10 FEW009 BKN023 OVC036 None
2019-01-18 11:06 28 22 21 77 120° 7 - 30.06 - 10 BKN023 OVC036 None
2019-01-18 10:54 27 21 22 77 130° 5 - 30.07 30.11 10 SCT023 OVC037 None
2019-01-18 09:54 25 21 17 84 130° 7 - 30.08 30.13 10 SCT010 OVC038 None
2019-01-18 09:20 24 20 16 83 140° 7 - 30.08 - 10 BKN011 OVC039 None
2019-01-18 08:54 24 20 17 83 130° 6 - 30.08 30.12 10 SCT011 OVC039 None
2019-01-18 07:54 22 18 14 84 150° 6 - 30.09 30.14 10 OVC043 None
2019-01-18 06:54 20 15 12 81 140° 6 - 30.10 30.15 10 FEW120 6-hr Precip Total (7am): 0.00"
6-hr Min Temp (7am): 18.0°F
6-hr Max Temp (7am): 21.0°F
2019-01-18 05:54 19 14 12 80 150° 5 - 30.09 30.14 10 CLR None
2019-01-18 04:54 20 14 15 77 100° 3 - 30.10 30.15 10 CLR None
2019-01-18 03:54 20 13 15 73 90° 3 - 30.13 30.18 10 FEW048 BKN075 OVC085 1-hr Precip Total: Trace
6-hr Precip Total (4am): 0.00"
2019-01-18 02:54 21 10 13 61 130° 6 - 30.17 30.22 10 OVC060 None
2019-01-18 02:38 19 9 13 62 130° 5 - 30.18 - 10 SCT026 SCT037 OVC060 None
2019-01-18 02:28 20 9 13 61 130° 5 - 30.19 - 10 BKN026 OVC060 None
2019-01-18 01:54 21 8 13 56 120° 6 - 30.19 30.24 10 OVC070 None
2019-01-18 00:54 21 6 13 51 140° 6 - 30.20 30.24 10 OVC100 6-hr Min Temp (1am): 21.0°F
6-hr Max Temp (1am): 23.0°F

Support USWX by starting your Amazon purchase here.